Time;durP1;ratioP1;P1;durP2;ratioP2;P2;SDS_P1;SDS_P2;PMS_P1;PMS_P2;Temp;Humidity;BMP_temperature;BMP_pressure;BME280_temperature;BME280_humidity;BME280_pressure;Samples;Min_cycle;Max_cycle;Signal;HPM_P1;HPM_P2
2022/03/19 00:01:39;;;;;;;;;4.00;4.00;;;;;11.94;34.86;102745.19;5076480;27;45455;-74
2022/03/19 00:04:05;;;;;;;;;4.00;4.00;;;;;11.90;34.71;102735.53;5077212;27;45423;-72
2022/03/19 00:06:35;;;;;;;;;5.00;5.00;;;;;11.89;35.24;102749.59;5076937;28;45312;-70
2022/03/19 00:09:01;;;;;;;;;3.00;3.00;;;;;11.82;34.94;102737.31;5076927;27;45367;-72
2022/03/19 00:11:26;;;;;;;;;8.67;5.00;;;;;11.83;35.04;102747.84;5076257;27;45645;-74
2022/03/19 00:13:52;;;;;;;;;5.00;5.00;;;;;11.80;34.94;102745.25;5074255;28;45450;-71
2022/03/19 00:16:17;;;;;;;;;5.00;5.00;;;;;11.76;34.35;102738.22;5072173;28;45358;-72
2022/03/19 00:18:42;;;;;;;;;4.00;4.00;;;;;11.79;34.47;102742.59;5056499;28;45609;-73
2022/03/19 00:21:08;;;;;;;;;3.67;3.33;;;;;11.79;35.55;102735.56;5056339;28;46306;-70
2022/03/19 00:23:33;;;;;;;;;4.00;4.00;;;;;11.79;34.73;102738.19;5056608;28;45319;-70
2022/03/19 00:25:58;;;;;;;;;4.33;4.33;;;;;11.77;35.11;102733.81;5056557;28;45520;-72
2022/03/19 00:28:24;;;;;;;;;7.00;5.67;;;;;11.79;35.09;102734.69;5076231;27;45411;-71
2022/03/19 00:30:49;;;;;;;;;3.00;3.00;;;;;11.78;34.81;102741.72;5075662;27;45381;-71
2022/03/19 00:33:15;;;;;;;;;4.33;4.33;;;;;11.79;35.24;102739.97;5076260;27;45371;-74
2022/03/19 00:35:40;;;;;;;;;2.33;2.33;;;;;11.77;35.07;102741.72;5076808;27;45410;-73
2022/03/19 00:38:05;;;;;;;;;5.00;5.00;;;;;11.73;35.26;102733.84;5076661;27;45624;-72
2022/03/19 00:40:33;;;;;;;;;5.67;3.67;;;;;11.74;34.60;102734.75;5075940;27;45481;-69
2022/03/19 00:42:58;;;;;;;;;5.00;5.00;;;;;11.75;34.94;102732.97;5075268;27;45492;-68
2022/03/19 00:45:24;;;;;;;;;4.00;4.00;;;;;11.71;35.19;102738.25;5076343;28;45469;-72
2022/03/19 00:47:49;;;;;;;;;4.00;4.00;;;;;11.70;34.75;102735.63;5075102;27;45429;-72
2022/03/19 00:50:14;;;;;;;;;4.00;4.00;;;;;11.67;35.15;102733.88;5076347;27;45492;-72
2022/03/19 00:52:41;;;;;;;;;4.00;4.00;;;;;11.69;34.93;102733.88;5076383;27;45486;-73
2022/03/19 00:55:07;;;;;;;;;3.00;3.00;;;;;11.67;35.12;102731.25;5074948;27;45532;-74
2022/03/19 00:57:44;;;;;;;;;3.33;3.00;;;;;11.66;35.58;102737.41;5076676;28;45479;-73
2022/03/19 01:00:15;;;;;;;;;4.67;3.67;;;;;11.63;35.14;102726.88;5076963;27;45426;-73
2022/03/19 01:02:42;;;;;;;;;2.00;1.67;;;;;11.65;35.83;102730.38;5076364;27;45512;-73
2022/03/19 01:05:09;;;;;;;;;4.00;4.00;;;;;11.62;34.55;102719.84;5075178;27;45429;-73
2022/03/19 01:07:45;;;;;;;;;3.00;3.00;;;;;11.63;34.59;102718.09;5075759;27;45381;-71
2022/03/19 01:10:12;;;;;;;;;5.00;4.33;;;;;11.65;35.41;102718.97;5075987;27;45484;-73
2022/03/19 01:12:38;;;;;;;;;3.33;3.33;;;;;11.64;35.37;102711.94;5075888;28;45436;-73
2022/03/19 01:15:05;;;;;;;;;5.67;4.33;;;;;11.64;35.98;102720.72;5075783;28;45518;-74
2022/03/19 01:17:30;;;;;;;;;4.00;3.33;;;;;11.62;35.42;102708.44;5075096;27;45399;-75
2022/03/19 01:19:58;;;;;;;;;2.67;2.67;;;;;11.58;35.28;102710.22;5076046;28;46099;-71
2022/03/19 01:22:24;;;;;;;;;4.33;4.00;;;;;11.59;34.50;102709.31;5074604;27;45465;-74
2022/03/19 01:24:50;;;;;;;;;4.00;4.00;;;;;11.60;35.29;102716.34;5076096;27;45467;-73
2022/03/19 01:27:16;;;;;;;;;5.67;4.67;;;;;11.59;35.19;102711.09;5079465;27;45438;-73
2022/03/19 01:29:42;;;;;;;;;4.00;4.00;;;;;11.54;34.77;102699.69;5079273;27;46143;-74
2022/03/19 01:32:07;;;;;;;;;5.67;4.00;;;;;11.52;35.49;102702.31;5079461;27;45379;-73
2022/03/19 01:34:33;;;;;;;;;3.00;3.00;;;;;11.54;35.48;102705.84;5079758;27;45433;-72
2022/03/19 01:36:58;;;;;;;;;3.00;3.00;;;;;11.55;34.66;102706.72;5079200;27;45561;-71
2022/03/19 01:39:24;;;;;;;;;3.00;3.00;;;;;11.52;34.93;102706.72;5079220;27;45801;-74
2022/03/19 01:41:49;;;;;;;;;3.00;3.00;;;;;11.52;34.79;102704.09;5079358;28;45434;-72
2022/03/19 01:44:19;;;;;;;;;3.67;3.67;;;;;11.49;35.15;102699.72;5079190;28;46026;-72
2022/03/19 01:46:53;;;;;;;;;5.00;3.00;;;;;11.47;35.07;102693.56;5077966;27;45348;-73
2022/03/19 01:49:19;;;;;;;;;4.67;3.67;;;;;11.47;34.65;102698.84;5077812;27;45536;-71
2022/03/19 01:51:44;;;;;;;;;5.00;4.00;;;;;11.40;34.92;102690.09;5073913;27;45470;-73
2022/03/19 01:54:10;;;;;;;;;3.00;3.00;;;;;11.38;34.91;102691.88;5058859;28;45362;-73
2022/03/19 01:56:35;;;;;;;;;5.00;3.00;;;;;11.38;35.52;102693.63;5058240;28;45617;-71
2022/03/19 01:59:03;;;;;;;;;4.67;4.00;;;;;11.38;35.05;102693.63;5069941;27;46052;-72
2022/03/19 02:01:28;;;;;;;;;3.00;3.00;;;;;11.37;35.24;102687.50;5078823;27;45483;-72
2022/03/19 02:03:54;;;;;;;;;4.00;4.00;;;;;11.35;35.73;102680.47;5078706;27;45558;-71
2022/03/19 02:06:24;;;;;;;;;5.00;5.00;;;;;11.35;35.08;102683.97;5079276;28;45715;-72
2022/03/19 02:08:49;;;;;;;;;3.00;3.00;;;;;11.34;35.56;102676.97;5079010;28;46125;-74
2022/03/19 02:11:15;;;;;;;;;5.33;5.33;;;;;11.38;35.42;102689.22;5078970;27;45362;-74
2022/03/19 02:13:40;;;;;;;;;3.67;3.67;;;;;11.33;35.00;102677.84;5077645;27;45481;-73
2022/03/19 02:16:05;;;;;;;;;5.00;5.00;;;;;11.35;35.53;102683.13;5078683;27;45553;-72
2022/03/19 02:18:33;;;;;;;;;8.67;7.33;;;;;11.30;35.37;102669.97;5077053;28;48197;-69
2022/03/19 02:20:58;;;;;;;;;4.33;4.00;;;;;11.31;34.91;102669.09;5078355;28;45506;-73
2022/03/19 02:26:10;;;;;;;;;4.67;4.67;;;;;11.34;36.19;102674.34;5078623;27;45425;-73
2022/03/19 02:28:35;;;;;;;;;9.33;8.00;;;;;11.31;35.76;102674.38;5078341;27;46086;-70
2022/03/19 02:31:01;;;;;;;;;3.33;3.33;;;;;11.27;35.50;102665.56;5078186;27;45368;-72
2022/03/19 02:33:26;;;;;;;;;4.33;3.00;;;;;11.28;35.56;102661.19;5078165;27;45483;-73
2022/03/19 02:35:51;;;;;;;;;6.33;6.33;;;;;11.28;35.62;102666.44;5077318;28;45415;-72
2022/03/19 02:38:17;;;;;;;;;7.00;7.00;;;;;11.25;36.04;102656.81;5077596;28;46274;-70
2022/03/19 02:40:42;;;;;;;;;7.33;3.67;;;;;11.24;36.42;102655.06;5078214;28;45416;-69
2022/03/19 02:43:08;;;;;;;;;7.33;7.33;;;;;11.23;36.36;102649.78;5077439;28;45336;-71
2022/03/19 02:45:33;;;;;;;;;4.67;4.67;;;;;11.16;35.69;102638.44;5078063;27;45394;-68
2022/03/19 02:47:58;;;;;;;;;6.67;6.67;;;;;11.14;36.77;102642.81;5077829;27;46115;-71
2022/03/19 02:50:33;;;;;;;;;5.00;5.00;;;;;11.16;36.11;102645.47;5078239;27;45381;-72
2022/03/19 02:53:02;;;;;;;;;6.33;5.00;;;;;11.12;36.32;102627.91;5078230;27;45412;-72
2022/03/19 02:55:36;;;;;;;;;7.00;5.00;;;;;11.12;36.95;102641.94;5077912;27;45564;-72
2022/03/19 02:58:03;;;;;;;;;8.67;7.33;;;;;11.12;36.66;102627.91;5077730;27;45572;-69
2022/03/19 03:00:29;;;;;;;;;8.00;8.00;;;;;11.12;36.26;102635.81;5076772;28;45744;-71
2022/03/19 03:02:55;;;;;;;;;11.67;9.00;;;;;11.09;37.03;102625.28;5077040;27;45415;-72
2022/03/19 03:05:20;;;;;;;;;10.00;9.67;;;;;11.06;36.91;102620.91;5076876;27;45635;-69
2022/03/19 03:07:46;;;;;;;;;8.00;8.00;;;;;11.03;36.33;102619.16;5076994;28;46275;-69
2022/03/19 03:10:15;;;;;;;;;9.00;8.67;;;;;11.05;37.60;102632.34;5077761;27;45485;-71
2022/03/19 03:12:41;;;;;;;;;8.67;8.67;;;;;11.03;36.69;102631.47;5078012;27;45382;-71
2022/03/19 03:15:07;;;;;;;;;8.33;7.33;;;;;11.03;37.32;102626.19;5077423;28;45509;-68
2022/03/19 03:17:33;;;;;;;;;8.67;8.00;;;;;11.02;36.74;102632.34;5077012;28;46024;-72
2022/03/19 03:19:59;;;;;;;;;11.00;9.00;;;;;11.00;37.39;102624.44;5077710;28;45512;-71
2022/03/19 03:22:24;;;;;;;;;12.00;9.33;;;;;11.00;37.31;102628.84;5077469;28;45430;-73
2022/03/19 03:24:50;;;;;;;;;7.67;7.67;;;;;11.00;37.10;102629.72;5077611;28;45647;-72
2022/03/19 03:27:15;;;;;;;;;10.00;10.00;;;;;10.94;36.71;102626.25;5077400;27;46002;-71
2022/03/19 03:29:41;;;;;;;;;10.75;9.25;;;;;10.93;37.69;102622.72;5075984;28;45718;-70
2022/03/19 03:32:08;;;;;;;;;11.00;11.00;;;;;10.90;36.93;102609.56;5076249;27;45417;-72
2022/03/19 03:34:33;;;;;;;;;15.75;14.25;;;;;10.86;37.25;102607.84;5076964;27;45382;-73
2022/03/19 03:36:59;;;;;;;;;10.67;10.67;;;;;10.86;37.74;102615.75;5076849;27;45496;-70
2022/03/19 03:39:24;;;;;;;;;10.67;8.33;;;;;10.85;37.76;102606.09;5076818;27;45511;-71
2022/03/19 03:41:50;;;;;;;;;8.00;7.00;;;;;10.84;37.59;102605.22;5077564;28;45568;-72
2022/03/19 03:44:15;;;;;;;;;12.75;11.00;;;;;10.84;38.24;102602.59;5076761;28;45437;-69
2022/03/19 03:46:40;;;;;;;;;14.50;10.50;;;;;10.81;37.68;102599.09;5077117;27;46219;-72
2022/03/19 03:49:06;;;;;;;;;12.75;11.00;;;;;10.82;37.79;102601.69;5075936;27;45422;-73
2022/03/19 03:51:31;;;;;;;;;12.00;12.00;;;;;10.80;38.07;102610.50;5076810;28;45423;-72
2022/03/19 03:53:57;;;;;;;;;11.00;9.67;;;;;10.78;37.89;102609.66;5077098;27;45523;-70
2022/03/19 03:56:22;;;;;;;;;11.00;9.75;;;;;10.80;38.97;102611.38;5077172;27;45580;-71
2022/03/19 03:58:48;;;;;;;;;14.25;12.50;;;;;10.81;38.08;102607.00;5076370;27;45414;-70
2022/03/19 04:01:14;;;;;;;;;13.75;13.75;;;;;10.83;38.50;102614.00;5076427;28;45458;-71
2022/03/19 04:03:39;;;;;;;;;16.25;14.25;;;;;10.80;37.96;102606.13;5076596;27;45393;-70
2022/03/19 04:06:05;;;;;;;;;15.50;14.75;;;;;10.83;39.11;102608.75;5076204;27;45414;-71
2022/03/19 04:08:31;;;;;;;;;11.33;10.00;;;;;10.78;38.30;102596.47;5076477;27;45499;-72
2022/03/19 04:10:56;;;;;;;;;13.50;12.00;;;;;10.80;38.92;102608.75;5077005;27;45431;-72
2022/03/19 04:13:21;;;;;;;;;14.50;12.00;;;;;10.76;39.46;102604.38;5076549;28;45648;-72
2022/03/19 04:15:47;;;;;;;;;16.50;16.00;;;;;10.78;38.48;102612.28;5076703;27;46330;-73
2022/03/19 04:18:15;;;;;;;;;13.25;11.75;;;;;10.75;39.07;102601.75;5076711;27;45472;-73
2022/03/19 04:20:40;;;;;;;;;17.25;17.25;;;;;10.75;39.31;102597.38;5076687;28;45446;-74
2022/03/19 04:23:06;;;;;;;;;16.25;16.00;;;;;10.76;38.82;102601.75;5076219;27;45572;-74
2022/03/19 04:25:31;;;;;;;;;16.75;16.75;;;;;10.74;38.94;102600.00;5076264;27;45884;-73
2022/03/19 04:27:57;;;;;;;;;16.00;14.00;;;;;10.73;39.32;102601.75;5074599;28;55302;-69
2022/03/19 04:30:25;;;;;;;;;19.50;14.50;;;;;10.73;38.77;102601.75;5076300;28;45577;-72
2022/03/19 04:32:52;;;;;;;;;19.50;15.00;;;;;10.72;38.76;102605.28;5075891;27;45499;-70
2022/03/19 04:38:05;;;;;;;;;20.00;17.25;;;;;10.64;38.71;102609.69;5076110;28;45390;-71
2022/03/19 04:40:31;;;;;;;;;16.75;16.50;;;;;10.59;39.26;102604.44;5076030;27;45381;-72
2022/03/19 04:42:57;;;;;;;;;18.25;16.75;;;;;10.58;39.48;102610.56;5074862;27;45509;-72
2022/03/19 04:45:24;;;;;;;;;15.75;14.50;;;;;10.59;39.85;102612.34;5075851;27;45549;-70
2022/03/19 04:47:49;;;;;;;;;17.75;16.50;;;;;10.55;39.51;102607.06;5075532;27;45472;-71
2022/03/19 04:50:15;;;;;;;;;14.00;13.25;;;;;10.58;39.69;102612.31;5076274;27;45374;-71
2022/03/19 04:52:40;;;;;;;;;16.75;12.50;;;;;10.58;39.98;102596.53;5076526;27;45403;-71
2022/03/19 04:55:07;;;;;;;;;18.50;15.75;;;;;10.56;39.80;102607.09;5075981;28;48455;-73
2022/03/19 04:57:32;;;;;;;;;21.75;20.50;;;;;10.56;40.08;102604.44;5076345;27;45508;-70
2022/03/19 04:59:58;;;;;;;;;22.50;19.00;;;;;10.53;40.78;102606.19;5074246;28;45387;-73
2022/03/19 05:02:24;;;;;;;;;20.00;19.00;;;;;10.53;40.07;102590.41;5076343;27;45319;-72
2022/03/19 05:04:51;;;;;;;;;23.50;23.50;;;;;10.50;40.34;102600.94;5075900;27;45453;-72
2022/03/19 05:07:19;;;;;;;;;21.25;20.50;;;;;10.45;40.62;102598.34;5076023;27;45556;-73
2022/03/19 05:12:32;;;;;;;;;23.25;18.75;;;;;10.47;40.69;102595.69;5076194;28;45426;-72
2022/03/19 05:14:58;;;;;;;;;20.00;19.00;;;;;10.44;41.30;102593.94;5075122;28;45358;-73
2022/03/19 05:17:24;;;;;;;;;22.00;20.25;;;;;10.43;40.84;102594.84;5073181;28;45437;-73
2022/03/19 05:19:49;;;;;;;;;20.25;18.50;;;;;10.42;41.29;102595.69;5075744;28;45320;-72
2022/03/19 05:22:14;;;;;;;;;23.25;19.50;;;;;10.39;41.00;102596.59;5075499;28;45550;-72
2022/03/19 05:24:40;;;;;;;;;19.50;17.00;;;;;10.41;41.38;102604.50;5075311;27;45437;-71
2022/03/19 05:27:05;;;;;;;;;26.50;24.50;;;;;10.41;41.31;102603.63;5075279;27;45316;-74
2022/03/19 05:29:31;;;;;;;;;25.00;24.50;;;;;10.38;41.60;102602.75;5075878;27;45416;-71
2022/03/19 05:31:58;;;;;;;;;20.50;18.00;;;;;10.38;41.75;102602.75;5075415;27;45210;-74
2022/03/19 05:34:29;;;;;;;;;24.75;22.25;;;;;10.37;41.60;102600.13;5075993;28;45514;-72
2022/03/19 05:36:55;;;;;;;;;36.50;27.75;;;;;10.36;41.77;102601.00;5075404;27;45472;-72
2022/03/19 05:39:21;;;;;;;;;27.50;25.50;;;;;10.35;41.90;102601.88;5075328;28;45425;-73
2022/03/19 05:41:46;;;;;;;;;28.25;26.75;;;;;10.32;42.08;102601.91;5075468;27;45440;-71
2022/03/19 05:44:12;;;;;;;;;29.25;25.75;;;;;10.33;42.21;102601.00;5075443;28;45362;-72
2022/03/19 05:46:37;;;;;;;;;32.75;29.25;;;;;10.33;42.63;102587.84;5075643;27;45443;-71
2022/03/19 05:49:02;;;;;;;;;33.00;27.25;;;;;10.33;42.44;102604.50;5075190;27;45511;-73
2022/03/19 05:51:28;;;;;;;;;25.25;25.25;;;;;10.34;41.89;102598.38;5075580;28;45574;-71
2022/03/19 05:53:53;;;;;;;;;32.75;28.75;;;;;10.33;42.34;102599.25;5075084;27;45410;-70
2022/03/19 05:56:19;;;;;;;;;33.25;29.75;;;;;10.31;42.66;102603.63;5074895;27;45484;-72
2022/03/19 05:58:45;;;;;;;;;32.50;31.25;;;;;10.32;42.85;102596.63;5075133;27;45375;-70
2022/03/19 06:01:10;;;;;;;;;36.75;29.50;;;;;10.28;42.38;102592.25;5075260;27;45444;-72
2022/03/19 06:03:35;;;;;;;;;30.00;28.00;;;;;10.22;42.93;102594.84;5073998;27;45530;-71
2022/03/19 06:06:01;;;;;;;;;32.50;31.50;;;;;10.24;42.99;102601.00;5074548;27;45474;-71
2022/03/19 06:08:27;;;;;;;;;33.00;31.50;;;;;10.23;43.38;102591.34;5075161;27;45561;-73
2022/03/19 06:10:52;;;;;;;;;30.25;29.75;;;;;10.24;43.05;102598.38;5075333;27;45638;-73
2022/03/19 06:13:18;;;;;;;;;34.75;32.00;;;;;10.23;43.45;102604.47;5076609;27;45954;-71
2022/03/19 06:15:43;;;;;;;;;30.75;29.00;;;;;10.23;43.63;102594.84;5078511;28;45434;-71
2022/03/19 06:18:08;;;;;;;;;34.75;33.75;;;;;10.26;43.08;102604.47;5078197;27;45532;-74
2022/03/19 06:20:34;;;;;;;;;30.25;27.75;;;;;10.24;43.52;102603.63;5078674;27;45639;-70
2022/03/19 06:23:00;;;;;;;;;37.00;34.00;;;;;10.24;44.04;102598.38;5078389;27;46235;-74
2022/03/19 06:25:26;;;;;;;;;29.25;29.00;;;;;10.23;43.67;102599.22;5078449;27;45438;-74
2022/03/19 06:27:51;;;;;;;;;32.25;31.25;;;;;10.26;43.94;102612.38;5078233;27;45430;-72
2022/03/19 06:30:17;;;;;;;;;32.50;29.50;;;;;10.26;43.47;102605.38;5078315;28;45400;-73
2022/03/19 06:32:42;;;;;;;;;32.25;27.75;;;;;10.23;43.64;102613.25;5079103;27;46072;-72
2022/03/19 06:35:09;;;;;;;;;36.25;34.75;;;;;10.22;44.00;102615.91;5085591;27;45452;-71
2022/03/19 06:37:35;;;;;;;;;36.00;31.25;;;;;10.20;44.05;102608.00;5076704;28;45461;-74
2022/03/19 06:40:06;;;;;;;;;37.25;33.00;;;;;10.20;44.32;102605.38;5078293;27;45455;-73
2022/03/19 06:42:33;;;;;;;;;34.00;30.75;;;;;10.21;44.13;102607.13;5078003;28;46193;-73
2022/03/19 06:44:58;;;;;;;;;31.75;31.50;;;;;10.19;44.02;102606.25;5078596;27;45466;-73
2022/03/19 06:47:24;;;;;;;;;41.00;36.25;;;;;10.20;44.51;102604.50;5077531;27;45448;-73
2022/03/19 06:49:50;;;;;;;;;39.00;34.50;;;;;10.22;44.31;102608.00;5077952;27;45466;-73
2022/03/19 06:52:16;;;;;;;;;42.00;38.25;;;;;10.23;44.12;102604.47;5076497;28;46306;-73
2022/03/19 06:54:41;;;;;;;;;43.75;37.50;;;;;10.23;44.23;102615.88;5077470;28;45555;-71
2022/03/19 06:57:07;;;;;;;;;36.25;33.25;;;;;10.25;44.39;102619.38;5076326;27;45512;-70
2022/03/19 06:59:32;;;;;;;;;41.25;35.00;;;;;10.27;44.91;102611.50;5076311;27;45556;-71
2022/03/19 07:01:58;;;;;;;;;43.50;38.00;;;;;10.21;44.69;102596.63;5075948;27;45675;-69
2022/03/19 07:04:23;;;;;;;;;43.00;38.25;;;;;10.24;43.96;102599.25;5077110;27;45566;-68
2022/03/19 07:06:49;;;;;;;;;41.00;38.75;;;;;10.24;44.60;102611.50;5077923;27;45359;-70
2022/03/19 07:09:14;;;;;;;;;48.75;40.25;;;;;10.23;44.97;102610.63;5077852;28;45409;-70
2022/03/19 07:11:40;;;;;;;;;36.75;33.75;;;;;10.27;45.16;102609.78;5077590;27;46093;-68
2022/03/19 07:14:05;;;;;;;;;38.00;34.25;;;;;10.29;45.28;102605.41;5077619;27;45408;-67
2022/03/19 07:16:31;;;;;;;;;43.50;38.00;;;;;10.28;45.55;102605.38;5077148;27;45499;-70
2022/03/19 07:18:56;;;;;;;;;47.75;39.00;;;;;10.25;44.98;102608.00;5077351;27;45592;-69
2022/03/19 07:21:22;;;;;;;;;46.00;40.50;;;;;10.24;45.18;102607.13;5085152;27;45365;-68
2022/03/19 07:23:48;;;;;;;;;50.50;41.75;;;;;10.26;45.59;102607.09;5097516;27;45424;-70
2022/03/19 07:26:14;;;;;;;;;47.00;40.00;;;;;10.23;45.38;102586.94;5097633;27;45430;-68
2022/03/19 07:28:40;;;;;;;;;49.00;42.00;;;;;10.26;45.75;102605.38;5083664;27;45568;-69
2022/03/19 07:31:06;;;;;;;;;50.00;41.50;;;;;10.26;46.03;102608.00;5083233;27;46249;-69
2022/03/19 07:33:34;;;;;;;;;56.00;43.00;;;;;10.26;45.98;102599.22;5077353;27;45451;-70
2022/03/19 07:36:01;;;;;;;;;54.00;43.00;;;;;10.27;46.27;102607.16;5082586;27;45424;-70
2022/03/19 07:38:27;;;;;;;;;52.75;44.75;;;;;10.27;46.08;102607.16;5076643;27;45497;-69
2022/03/19 07:43:36;;;;;;;;;52.00;43.25;;;;;10.26;46.13;102601.84;5081079;27;45355;-68
2022/03/19 07:46:02;;;;;;;;;58.75;44.25;;;;;10.31;46.18;102602.75;5076682;27;45809;-64
2022/03/19 07:48:27;;;;;;;;;50.75;43.25;;;;;10.31;46.59;102595.72;5076613;28;45515;-63
2022/03/19 07:50:53;;;;;;;;;56.00;46.75;;;;;10.35;45.77;102599.25;5076037;27;45750;-63
2022/03/19 07:53:18;;;;;;;;;58.00;47.00;;;;;10.35;46.49;102594.00;5076147;27;45363;-64
2022/03/19 07:55:43;;;;;;;;;52.00;43.50;;;;;10.37;46.43;102595.75;5073414;27;45779;-65
2022/03/19 07:58:10;;;;;;;;;58.25;46.75;;;;;10.39;46.53;102593.94;5067935;27;45588;-65
2022/03/19 08:00:35;;;;;;;;;65.75;50.50;;;;;10.38;46.45;102597.47;5076377;27;46189;-66
2022/03/19 08:03:00;;;;;;;;;61.00;47.75;;;;;10.36;46.92;102588.72;5069910;27;45497;-64
2022/03/19 08:05:26;;;;;;;;;58.00;47.75;;;;;10.37;46.74;102593.09;5075650;27;45678;-65
2022/03/19 08:07:51;;;;;;;;;58.75;48.75;;;;;10.39;47.34;102588.69;5082050;27;45424;-65
2022/03/19 08:10:18;;;;;;;;;60.75;47.25;;;;;10.43;47.09;102599.22;5076025;28;48452;-66
2022/03/19 08:12:45;;;;;;;;;58.75;48.00;;;;;10.40;46.98;102584.34;5074609;27;45465;-68
2022/03/19 08:15:11;;;;;;;;;62.75;49.25;;;;;10.43;46.88;102589.59;5069247;28;45587;-65
2022/03/19 08:17:38;;;;;;;;;55.75;45.75;;;;;10.47;46.82;102595.69;5075417;27;45532;-62
2022/03/19 08:20:06;;;;;;;;;62.50;49.00;;;;;10.47;47.23;102593.94;5075758;27;47660;-65
2022/03/19 08:22:32;;;;;;;;;60.75;48.25;;;;;10.50;47.39;102599.19;5074685;27;45712;-67
2022/03/19 08:24:58;;;;;;;;;57.25;48.25;;;;;10.53;47.48;102596.56;5075706;28;45519;-65
2022/03/19 08:27:24;;;;;;;;;54.75;45.75;;;;;10.57;47.41;102586.91;5075902;27;45393;-65
2022/03/19 08:29:49;;;;;;;;;61.50;51.50;;;;;10.59;47.89;102585.16;5074953;27;45496;-65
2022/03/19 08:32:14;;;;;;;;;58.25;47.50;;;;;10.62;47.55;102585.13;5075972;27;45402;-66
2022/03/19 08:34:40;;;;;;;;;58.50;47.75;;;;;10.65;47.17;102574.59;5075337;27;45397;-63
2022/03/19 08:37:06;;;;;;;;;57.25;46.75;;;;;10.71;47.28;102574.56;5086960;27;45433;-65
2022/03/19 08:42:15;;;;;;;;;61.50;51.00;;;;;10.74;47.13;102574.53;5075722;27;45408;-65
2022/03/19 08:44:41;;;;;;;;;62.25;50.50;;;;;10.79;47.52;102578.03;5075668;28;45365;-65
2022/03/19 08:47:06;;;;;;;;;61.50;49.00;;;;;10.82;47.41;102575.38;5074762;27;45546;-65
2022/03/19 08:49:31;;;;;;;;;62.25;50.50;;;;;10.84;47.66;102580.66;5075178;28;45398;-65
2022/03/19 08:51:57;;;;;;;;;61.00;50.25;;;;;10.86;47.24;102576.25;5075271;27;45516;-65
2022/03/19 08:54:22;;;;;;;;;60.75;47.75;;;;;10.84;46.90;102580.66;5075859;27;45572;-65
2022/03/19 08:56:50;;;;;;;;;67.75;54.50;;;;;10.85;47.71;102582.38;5075435;27;45432;-65
2022/03/19 08:59:16;;;;;;;;;60.00;48.00;;;;;10.84;47.12;102578.88;5075455;27;46135;-65
2022/03/19 09:01:43;;;;;;;;;61.00;49.50;;;;;10.91;47.33;102579.75;5075345;27;45439;-65
2022/03/19 09:04:10;;;;;;;;;63.00;49.25;;;;;10.94;47.88;102576.22;5075709;28;45501;-66
2022/03/19 09:06:37;;;;;;;;;67.50;54.50;;;;;10.95;46.96;102570.06;5074644;27;45382;-65
2022/03/19 09:09:03;;;;;;;;;63.50;50.75;;;;;10.95;47.21;102575.34;5073626;27;45517;-65
2022/03/19 09:11:33;;;;;;;;;63.50;50.00;;;;;10.98;47.25;102577.94;5075463;27;45433;-65
2022/03/19 09:13:59;;;;;;;;;53.00;42.75;;;;;11.02;46.84;102556.00;5075425;27;45486;-66
2022/03/19 09:16:25;;;;;;;;;61.25;51.00;;;;;11.04;46.61;102575.28;5075503;27;45560;-65
2022/03/19 09:18:51;;;;;;;;;61.25;50.00;;;;;11.09;46.78;102562.09;5075454;27;45827;-65
2022/03/19 09:21:17;;;;;;;;;63.50;51.75;;;;;11.16;46.07;102566.44;5074931;27;45482;-67
2022/03/19 09:23:45;;;;;;;;;61.50;50.00;;;;;11.23;46.44;102562.88;5075510;27;45383;-65
2022/03/19 09:26:14;;;;;;;;;63.00;50.75;;;;;11.31;46.46;102570.72;5075108;27;45406;-65
2022/03/19 09:28:39;;;;;;;;;60.25;48.25;;;;;11.38;45.66;102554.88;5075193;27;46034;-65
2022/03/19 09:31:05;;;;;;;;;59.50;48.75;;;;;11.42;45.56;102556.63;5075251;27;45555;-66
2022/03/19 09:33:31;;;;;;;;;60.25;49.25;;;;;11.41;44.91;102554.84;5075543;27;45446;-65
2022/03/19 09:35:58;;;;;;;;;61.75;51.50;;;;;11.43;45.06;102549.56;5075087;27;45586;-66
2022/03/19 09:38:23;;;;;;;;;54.50;45.00;;;;;11.41;45.24;102554.84;5075239;27;46138;-65
2022/03/19 09:40:49;;;;;;;;;65.00;51.50;;;;;11.43;44.78;102560.13;5075227;27;45409;-66
2022/03/19 09:43:14;;;;;;;;;44.25;38.75;;;;;11.46;44.74;102560.09;5075059;28;45418;-66
2022/03/19 09:45:40;;;;;;;;;67.50;53.25;;;;;11.47;44.48;102556.56;5075192;27;45503;-65
2022/03/19 09:48:06;;;;;;;;;60.75;48.00;;;;;11.49;45.44;102553.03;5076453;28;45441;-65
2022/03/19 09:50:34;;;;;;;;;63.25;50.50;;;;;11.53;44.23;102551.25;5078364;27;45477;-65
2022/03/19 09:53:02;;;;;;;;;58.25;48.75;;;;;11.57;44.71;102558.25;5078767;27;45421;-65
2022/03/19 09:55:30;;;;;;;;;59.00;49.00;;;;;11.63;44.87;102554.69;5078657;27;45485;-65
2022/03/19 09:57:56;;;;;;;;;60.75;50.00;;;;;11.65;44.54;102548.50;5078092;27;45951;-66
2022/03/19 10:00:24;;;;;;;;;55.75;47.00;;;;;11.67;43.64;102540.59;5078470;27;45327;-65
2022/03/19 10:03:03;;;;;;;;;65.00;50.75;;;;;11.72;44.74;102544.94;5078238;27;45422;-65
2022/03/19 10:11:15;;;;;;;;;60.25;49.50;;;;;11.95;43.45;102538.59;5052724;28;45403;-65
2022/03/19 10:13:44;;;;;;;;;58.50;46.75;;;;;12.16;43.35;102530.47;5058054;28;45521;-66
2022/03/19 10:16:31;;;;;;;;;58.50;47.75;;;;;12.43;43.15;102514.34;5057999;28;45489;-65
2022/03/19 10:19:01;;;;;;;;;65.00;50.75;;;;;12.63;42.86;102527.28;5068002;28;46133;-65
2022/03/19 10:21:28;;;;;;;;;57.50;46.75;;;;;12.79;42.67;102519.16;5078142;27;45436;-65
2022/03/19 10:23:58;;;;;;;;;56.50;48.00;;;;;13.02;42.11;102523.22;5078088;27;45504;-66
2022/03/19 10:26:29;;;;;;;;;59.25;47.75;;;;;13.20;41.23;102515.03;5077919;27;45548;-65
2022/03/19 10:29:00;;;;;;;;;56.50;46.50;;;;;13.32;41.84;102513.09;5077928;28;45539;-65
2022/03/19 10:31:35;;;;;;;;;58.25;47.50;;;;;13.37;41.10;102500.69;5077979;27;45448;-65
2022/03/19 10:34:02;;;;;;;;;59.75;48.00;;;;;13.39;40.66;102510.34;5077220;27;45381;-65
2022/03/19 10:36:34;;;;;;;;;57.75;48.25;;;;;13.34;40.53;102513.97;5077660;27;45612;-65
2022/03/19 10:39:04;;;;;;;;;61.00;49.25;;;;;13.27;41.31;102510.53;5077462;27;46908;-65
2022/03/19 10:41:35;;;;;;;;;60.00;50.00;;;;;13.22;41.43;102507.09;5077915;27;45426;-65
2022/03/19 10:44:11;;;;;;;;;62.75;48.75;;;;;13.15;41.00;102497.50;5077975;27;45408;-65
2022/03/19 10:46:37;;;;;;;;;63.25;49.25;;;;;13.04;40.92;102498.53;5077789;27;45402;-65
2022/03/19 10:49:03;;;;;;;;;55.50;45.25;;;;;12.99;40.62;102500.38;5077444;27;45484;-66
2022/03/19 10:51:30;;;;;;;;;60.00;47.00;;;;;12.92;40.44;102497.84;5077635;27;45584;-65
2022/03/19 10:53:56;;;;;;;;;59.25;46.25;;;;;12.86;41.17;102493.50;5077822;27;45524;-66
2022/03/19 10:56:21;;;;;;;;;57.25;47.75;;;;;12.83;40.93;102493.56;5077012;27;45603;-65
2022/03/19 10:58:47;;;;;;;;;60.50;48.25;;;;;12.83;40.63;102490.91;5076645;27;49529;-65
2022/03/19 11:01:15;;;;;;;;;56.00;45.75;;;;;12.86;40.82;102482.09;5077219;27;45441;-65
2022/03/19 11:03:42;;;;;;;;;53.75;44.75;;;;;12.88;41.02;102480.31;5077572;27;45460;-65
2022/03/19 11:06:09;;;;;;;;;55.25;45.00;;;;;12.90;40.22;102479.38;5075678;27;45399;-65
2022/03/19 11:08:38;;;;;;;;;57.25;46.75;;;;;12.95;40.58;102484.56;5077228;27;46011;-65
2022/03/19 11:11:09;;;;;;;;;56.75;45.75;;;;;12.96;40.29;102484.56;5077018;27;45385;-65
2022/03/19 11:13:41;;;;;;;;;54.50;43.25;;;;;12.99;40.00;102483.66;5076828;27;45532;-65
2022/03/19 11:16:10;;;;;;;;;53.75;44.00;;;;;13.00;39.79;102465.16;5077412;27;45397;-65
2022/03/19 11:18:38;;;;;;;;;59.00;47.50;;;;;13.02;39.76;102465.97;5092892;27;45601;-65
2022/03/19 11:21:04;;;;;;;;;56.00;45.75;;;;;13.05;40.43;102471.19;5077139;27;45379;-65
2022/03/19 11:23:45;;;;;;;;;55.25;45.50;;;;;13.10;39.52;102457.06;5077255;27;45446;-65
2022/03/19 11:26:15;;;;;;;;;51.50;43.25;;;;;13.14;39.28;102453.50;5076882;27;45484;-65
2022/03/19 11:28:41;;;;;;;;;55.25;43.75;;;;;13.16;39.34;102464.88;5076944;27;46443;-65
2022/03/19 11:31:10;;;;;;;;;61.00;49.25;;;;;13.18;39.67;102458.69;5076881;27;45500;-65